Terminal Aerodrome Forecast
Issued by NWS Dodge City, KS

Home | Current Version | Previous Version | Graphics & Text | Print | Product List | Glossary Off
Versions: 1 2 3 4 5 6 7 8 9 10 11 12 13 14 15 16 17 18 19 20 21 22 23 24 25 26 27 28

000
FTUS43 KDDC 201944 AAA
TAFDDC
TAF AMD
KDDC 201944Z 2020/2118 VRB06KT P6SM FEW040
     FM202200 04007KT P6SM VCTS SCT040CB
     FM210100 04006KT P6SM SCT040
     FM210900 01010KT P6SM VCTS BKN040CB=

USA.gov is the U.S. government's official web portal to all federal, state and local government web resources and services.